SIA37 KLAX-WSSS
Flight info
| Callsign | SIA37 |
|---|---|
| Flight time | N/A |
| Altitude | 34000 |
| Route | SUMMR2 MCKEY DCT LIBBO DCT BRINY DCT BOARS DCT AMAKR DCT REDWD DCT TRYSH DCT 41N130W 43N140W 44N150W 45N160W/N0486F360 44N170W 42N180E 38N170E/N0498F380 33N160E 28N150E/N0491F400 23N140E 19N130E DCT OMDOB DCT JOM M767 TODAM/N0482F430 M767 TOMAN KARTO2A |
| Aircraft | A359/H-SDE2E3GHIJ3J4J5LM1ORWXY/LB1D1 |
Departure
| Time | 2026-04-20 06:26 |
|---|---|
| Airport | Los Angeles International Airport (KLAX) |
Arrival
| Time | N/A |
|---|---|
| Airport | Singapore Changi Airport (WSSS) |
| Time | Latitude | Longitude | Altitude | Speed | Heading |
|---|---|---|---|---|---|
| 2026-04-20 05:10 | 33.94461 | -118.41151 | 127 ft | 0 kts | 83° |
| 2026-04-20 06:12 | 33.94460 | -118.41153 | 132 ft | 2 kts | 83° |
| 2026-04-20 06:12 | 33.94457 | -118.41172 | 128 ft | 2 kts | 75° |
| 2026-04-20 06:12 | 33.94452 | -118.41191 | 132 ft | 2 kts | 66° |
| 2026-04-20 06:13 | 33.94445 | -118.41208 | 132 ft | 2 kts | 53° |
| 2026-04-20 06:13 | 33.94433 | -118.41223 | 129 ft | 2 kts | 36° |
| 2026-04-20 06:13 | 33.94419 | -118.41232 | 129 ft | 2 kts | 19° |
| 2026-04-20 06:13 | 33.94403 | -118.41237 | 132 ft | 2 kts | 5° |
| 2026-04-20 06:14 | 33.94388 | -118.41237 | 129 ft | 2 kts | 355° |
| 2026-04-20 06:14 | 33.94382 | -118.41236 | 132 ft | 0 kts | 353° |
| 2026-04-20 06:20 | 33.94390 | -118.41238 | 129 ft | 5 kts | 352° |
| 2026-04-20 06:20 | 33.94444 | -118.41247 | 126 ft | 9 kts | 352° |
| 2026-04-20 06:20 | 33.94519 | -118.41259 | 129 ft | 12 kts | 352° |
| 2026-04-20 06:21 | 33.94607 | -118.41274 | 129 ft | 13 kts | 353° |
| 2026-04-20 06:21 | 33.94694 | -118.41286 | 126 ft | 13 kts | 353° |
| 2026-04-20 06:21 | 33.94777 | -118.41278 | 132 ft | 9 kts | 34° |
| 2026-04-20 06:21 | 33.94802 | -118.41210 | 124 ft | 12 kts | 81° |
| 2026-04-20 06:22 | 33.94814 | -118.41098 | 129 ft | 14 kts | 83° |
| 2026-04-20 06:22 | 33.94826 | -118.40982 | 122 ft | 14 kts | 83° |
| 2026-04-20 06:22 | 33.94838 | -118.40864 | 132 ft | 14 kts | 83° |
| 2026-04-20 06:22 | 33.94850 | -118.40746 | 132 ft | 14 kts | 83° |
| 2026-04-20 06:23 | 33.94862 | -118.40626 | 124 ft | 14 kts | 83° |
| 2026-04-20 06:23 | 33.94875 | -118.40506 | 123 ft | 14 kts | 83° |
| 2026-04-20 06:23 | 33.94887 | -118.40386 | 127 ft | 15 kts | 83° |
| 2026-04-20 06:23 | 33.94900 | -118.40264 | 125 ft | 15 kts | 83° |
| 2026-04-20 06:24 | 33.94912 | -118.40142 | 131 ft | 15 kts | 83° |
| 2026-04-20 06:24 | 33.94925 | -118.40020 | 131 ft | 15 kts | 83° |
| 2026-04-20 06:24 | 33.94962 | -118.39923 | 120 ft | 12 kts | 28° |
| 2026-04-20 06:24 | 33.95027 | -118.39930 | 124 ft | 5 kts | 312° |
| 2026-04-20 06:25 | 33.95037 | -118.39969 | 126 ft | 5 kts | 277° |
| 2026-04-20 06:25 | 33.95036 | -118.40007 | 124 ft | 5 kts | 265° |
| 2026-04-20 06:25 | 33.95029 | -118.40073 | 128 ft | 12 kts | 262° |
| 2026-04-20 06:25 | 33.94997 | -118.40390 | 132 ft | 64 kts | 263° |
| 2026-04-20 06:26 | 33.94923 | -118.41115 | 132 ft | 109 kts | 263° |
| 2026-04-20 06:26 | 33.94812 | -118.42191 | 132 ft | 148 kts | 263° |
| 2026-04-20 06:26 | 33.94671 | -118.43501 | 398 ft | 158 kts | 260° |
| 2026-04-20 06:26 | 33.94515 | -118.44821 | 750 ft | 158 kts | 261° |
| 2026-04-20 06:27 | 33.94394 | -118.46111 | 1147 ft | 157 kts | 263° |
| 2026-04-20 06:27 | 33.94300 | -118.47464 | 1379 ft | 169 kts | 266° |
| 2026-04-20 06:27 | 33.94256 | -118.48965 | 1482 ft | 190 kts | 268° |
| 2026-04-20 06:27 | 33.94221 | -118.50640 | 1672 ft | 209 kts | 268° |
| 2026-04-20 06:28 | 33.94138 | -118.52468 | 1898 ft | 228 kts | 264° |
| 2026-04-20 06:28 | 33.93976 | -118.54455 | 2139 ft | 247 kts | 263° |
| 2026-04-20 06:28 | 33.93797 | -118.56564 | 2554 ft | 258 kts | 263° |
| 2026-04-20 06:28 | 33.93620 | -118.58738 | 3102 ft | 263 kts | 263° |
| 2026-04-20 06:29 | 33.93443 | -118.60946 | 3646 ft | 267 kts | 263° |
| 2026-04-20 06:29 | 33.93264 | -118.63185 | 4200 ft | 270 kts | 263° |
| 2026-04-20 06:29 | 33.93087 | -118.65447 | 4762 ft | 273 kts | 263° |
| 2026-04-20 06:29 | 33.92914 | -118.67701 | 5297 ft | 274 kts | 262° |
| 2026-04-20 06:30 | 33.92735 | -118.69991 | 5879 ft | 275 kts | 260° |
| 2026-04-20 06:30 | 33.92529 | -118.72279 | 6399 ft | 276 kts | 259° |
| 2026-04-20 06:30 | 33.92322 | -118.74585 | 6865 ft | 277 kts | 259° |
| 2026-04-20 06:30 | 33.92124 | -118.76907 | 7322 ft | 279 kts | 259° |
| 2026-04-20 06:31 | 33.91932 | -118.79240 | 7783 ft | 281 kts | 259° |
| 2026-04-20 06:31 | 33.91743 | -118.81583 | 8228 ft | 282 kts | 259° |
| 2026-04-20 06:31 | 33.91640 | -118.83962 | 8642 ft | 286 kts | 265° |
| 2026-04-20 06:31 | 33.91687 | -118.86363 | 9078 ft | 288 kts | 267° |
| 2026-04-20 06:32 | 33.91763 | -118.88776 | 9550 ft | 289 kts | 267° |
| 2026-04-20 06:32 | 33.91839 | -118.91203 | 10027 ft | 291 kts | 267° |
| 2026-04-20 06:32 | 33.91912 | -118.93673 | 10269 ft | 300 kts | 267° |
| 2026-04-20 06:32 | 33.91982 | -118.96233 | 10435 ft | 312 kts | 265° |
| 2026-04-20 06:33 | 33.92019 | -118.98858 | 10574 ft | 322 kts | 265° |
| 2026-04-20 06:33 | 33.92279 | -119.01606 | 10583 ft | 341 kts | 281° |
| 2026-04-20 06:33 | 33.93283 | -119.04270 | 10673 ft | 358 kts | 296° |
| 2026-04-20 06:33 | 33.94617 | -119.06860 | 10826 ft | 368 kts | 297° |
| 2026-04-20 06:34 | 33.96002 | -119.09482 | 10997 ft | 377 kts | 298° |
| 2026-04-20 06:34 | 33.97429 | -119.12193 | 11146 ft | 386 kts | 298° |
| 2026-04-20 06:34 | 34.00419 | -119.17720 | 11539 ft | 401 kts | 304° |
| 2026-04-20 06:35 | 34.02421 | -119.20084 | 11841 ft | 406 kts | 319° |
| 2026-04-20 06:35 | 34.04707 | -119.22100 | 12243 ft | 408 kts | 321° |
| 2026-04-20 06:35 | 34.07033 | -119.24078 | 12583 ft | 411 kts | 321° |
| 2026-04-20 06:35 | 34.09373 | -119.26071 | 12909 ft | 413 kts | 321° |
| 2026-04-20 06:36 | 34.11722 | -119.28080 | 13251 ft | 414 kts | 321° |
| 2026-04-20 06:36 | 34.14079 | -119.30103 | 13590 ft | 416 kts | 321° |
| 2026-04-20 06:36 | 34.16447 | -119.32140 | 13916 ft | 418 kts | 321° |
| 2026-04-20 06:36 | 34.18829 | -119.34191 | 14215 ft | 420 kts | 321° |
| 2026-04-20 06:37 | 34.21210 | -119.36244 | 14533 ft | 421 kts | 320° |
| 2026-04-20 06:37 | 34.23569 | -119.38280 | 14834 ft | 422 kts | 320° |
| 2026-04-20 06:37 | 34.25961 | -119.40347 | 15159 ft | 424 kts | 320° |
| 2026-04-20 06:37 | 34.28360 | -119.42421 | 15459 ft | 425 kts | 320° |
| 2026-04-20 06:38 | 34.30770 | -119.44507 | 15757 ft | 426 kts | 320° |
| 2026-04-20 06:38 | 34.33185 | -119.46598 | 16061 ft | 428 kts | 320° |
| 2026-04-20 06:38 | 34.35605 | -119.48695 | 16362 ft | 429 kts | 320° |
| 2026-04-20 06:38 | 34.38038 | -119.50806 | 16653 ft | 430 kts | 320° |
| 2026-04-20 06:39 | 34.40420 | -119.53011 | 16965 ft | 430 kts | 315° |
| 2026-04-20 06:39 | 34.42543 | -119.55556 | 17235 ft | 430 kts | 307° |
| 2026-04-20 06:39 | 34.44513 | -119.58300 | 17471 ft | 432 kts | 306° |
| 2026-04-20 06:39 | 34.46464 | -119.61077 | 17791 ft | 433 kts | 306° |
| 2026-04-20 06:40 | 34.48416 | -119.63865 | 18089 ft | 434 kts | 306° |
| 2026-04-20 06:40 | 34.50346 | -119.66614 | 18356 ft | 434 kts | 306° |
| 2026-04-20 06:40 | 34.52309 | -119.69405 | 18573 ft | 436 kts | 306° |
| 2026-04-20 06:40 | 34.54282 | -119.72216 | 18785 ft | 437 kts | 306° |
| 2026-04-20 06:41 | 34.56258 | -119.75028 | 19046 ft | 438 kts | 306° |
| 2026-04-20 06:41 | 34.58236 | -119.77845 | 19302 ft | 439 kts | 306° |
| 2026-04-20 06:41 | 34.60216 | -119.80669 | 19542 ft | 440 kts | 306° |
| 2026-04-20 06:41 | 34.62204 | -119.83504 | 19802 ft | 441 kts | 305° |
| 2026-04-20 06:42 | 34.64191 | -119.86340 | 20062 ft | 442 kts | 305° |
| 2026-04-20 06:42 | 34.66184 | -119.89189 | 20308 ft | 443 kts | 305° |
| 2026-04-20 06:42 | 34.68182 | -119.92048 | 20552 ft | 444 kts | 305° |
| 2026-04-20 06:42 | 34.70186 | -119.94916 | 20819 ft | 445 kts | 305° |
| 2026-04-20 06:43 | 34.72190 | -119.97787 | 21090 ft | 446 kts | 305° |
| 2026-04-20 06:43 | 34.74200 | -120.00671 | 21282 ft | 449 kts | 304° |
| 2026-04-20 06:43 | 34.76222 | -120.03572 | 21538 ft | 450 kts | 305° |
| 2026-04-20 06:43 | 34.78248 | -120.06481 | 21811 ft | 450 kts | 304° |
| 2026-04-20 06:44 | 34.80271 | -120.09390 | 22054 ft | 451 kts | 304° |
| 2026-04-20 06:44 | 34.82309 | -120.12322 | 22283 ft | 453 kts | 304° |
| 2026-04-20 06:44 | 34.84313 | -120.15207 | 22547 ft | 454 kts | 304° |
| 2026-04-20 06:44 | 34.86356 | -120.18150 | 22788 ft | 454 kts | 304° |
| 2026-04-20 06:45 | 34.88395 | -120.21093 | 23031 ft | 456 kts | 304° |
| 2026-04-20 06:45 | 34.90443 | -120.24055 | 23185 ft | 459 kts | 304° |
| 2026-04-20 06:45 | 34.92502 | -120.27028 | 23413 ft | 460 kts | 304° |
| 2026-04-20 06:45 | 34.94565 | -120.30009 | 23648 ft | 460 kts | 304° |
| 2026-04-20 06:46 | 34.96633 | -120.33000 | 23845 ft | 461 kts | 304° |
| 2026-04-20 06:46 | 34.98697 | -120.35990 | 24029 ft | 462 kts | 304° |
| 2026-04-20 06:46 | 35.00773 | -120.38998 | 24230 ft | 463 kts | 304° |
| 2026-04-20 06:46 | 35.02845 | -120.42004 | 24448 ft | 463 kts | 304° |
| 2026-04-20 06:47 | 35.04927 | -120.45026 | 24660 ft | 464 kts | 303° |
| 2026-04-20 06:47 | 35.07007 | -120.48050 | 24818 ft | 466 kts | 304° |
| 2026-04-20 06:47 | 35.09101 | -120.51097 | 25011 ft | 467 kts | 304° |
| 2026-04-20 06:47 | 35.11167 | -120.54104 | 25215 ft | 468 kts | 303° |
| 2026-04-20 06:48 | 35.13259 | -120.57152 | 25399 ft | 468 kts | 303° |
| 2026-04-20 06:48 | 35.15353 | -120.60207 | 25589 ft | 469 kts | 303° |
| 2026-04-20 06:48 | 35.17456 | -120.63276 | 25786 ft | 470 kts | 303° |
| 2026-04-20 06:48 | 35.19560 | -120.66351 | 25985 ft | 471 kts | 303° |
| 2026-04-20 06:49 | 35.21668 | -120.69432 | 26180 ft | 473 kts | 303° |
| 2026-04-20 06:49 | 35.23777 | -120.72520 | 26343 ft | 474 kts | 303° |
| 2026-04-20 06:49 | 35.25890 | -120.75615 | 26542 ft | 474 kts | 303° |
| 2026-04-20 06:49 | 35.28007 | -120.78718 | 26742 ft | 474 kts | 303° |
| 2026-04-20 06:50 | 35.30122 | -120.81824 | 26930 ft | 475 kts | 303° |
| 2026-04-20 06:50 | 35.32241 | -120.84938 | 27091 ft | 477 kts | 303° |
| 2026-04-20 06:50 | 35.34338 | -120.88021 | 27266 ft | 477 kts | 303° |
| 2026-04-20 06:50 | 35.36469 | -120.91157 | 27443 ft | 478 kts | 303° |
| 2026-04-20 06:51 | 35.38600 | -120.94295 | 27644 ft | 479 kts | 303° |
| 2026-04-20 06:51 | 35.40731 | -120.97438 | 27807 ft | 480 kts | 303° |
| 2026-04-20 06:51 | 35.42869 | -121.00592 | 27983 ft | 481 kts | 303° |
| 2026-04-20 06:51 | 35.45010 | -121.03754 | 28150 ft | 482 kts | 303° |
| 2026-04-20 06:52 | 35.47149 | -121.06918 | 28316 ft | 483 kts | 303° |
| 2026-04-20 06:52 | 35.49294 | -121.10094 | 28476 ft | 483 kts | 303° |
| 2026-04-20 06:52 | 35.51438 | -121.13266 | 28627 ft | 484 kts | 303° |
| 2026-04-20 06:52 | 35.53609 | -121.16454 | 28783 ft | 485 kts | 303° |
| 2026-04-20 06:53 | 35.55776 | -121.19613 | 28960 ft | 485 kts | 303° |
| 2026-04-20 06:53 | 35.57943 | -121.22752 | 29190 ft | 484 kts | 303° |
| 2026-04-20 06:53 | 35.60122 | -121.25892 | 29438 ft | 483 kts | 306° |
| 2026-04-20 06:53 | 35.62353 | -121.28978 | 29735 ft | 482 kts | 307° |
| 2026-04-20 06:54 | 35.64596 | -121.32041 | 30035 ft | 481 kts | 307° |
| 2026-04-20 06:54 | 35.66817 | -121.35104 | 30311 ft | 479 kts | 306° |
| 2026-04-20 06:54 | 35.68302 | -121.37181 | 30447 ft | 478 kts | 306° |
| 2026-04-20 06:54 | 35.70449 | -121.40228 | 30662 ft | 477 kts | 305° |
| 2026-04-20 06:55 | 35.72606 | -121.43327 | 30886 ft | 475 kts | 305° |
| 2026-04-20 06:55 | 35.74741 | -121.46420 | 31123 ft | 474 kts | 304° |
| 2026-04-20 06:55 | 35.76868 | -121.49513 | 31348 ft | 472 kts | 304° |
| 2026-04-20 06:55 | 35.78993 | -121.52609 | 31565 ft | 471 kts | 304° |
| 2026-04-20 06:56 | 35.81107 | -121.55689 | 31795 ft | 470 kts | 304° |
| 2026-04-20 06:56 | 35.83209 | -121.58755 | 32015 ft | 468 kts | 304° |
| 2026-04-20 06:56 | 35.85314 | -121.61825 | 32202 ft | 468 kts | 304° |
| 2026-04-20 06:56 | 35.87413 | -121.64889 | 32393 ft | 467 kts | 304° |
| 2026-04-20 06:57 | 35.89506 | -121.67946 | 32578 ft | 465 kts | 304° |
| 2026-04-20 06:57 | 35.91592 | -121.70994 | 32793 ft | 464 kts | 304° |
| 2026-04-20 06:57 | 35.93672 | -121.74038 | 32976 ft | 463 kts | 304° |
| 2026-04-20 06:57 | 35.95717 | -121.77031 | 33163 ft | 462 kts | 304° |
| 2026-04-20 06:58 | 35.97843 | -121.80019 | 33308 ft | 465 kts | 308° |
| 2026-04-20 06:58 | 36.00251 | -121.82736 | 33435 ft | 472 kts | 315° |
| 2026-04-20 06:58 | 36.02985 | -121.85050 | 33581 ft | 480 kts | 323° |
| 2026-04-20 06:58 | 36.05905 | -121.87059 | 33741 ft | 481 kts | 324° |
| 2026-04-20 06:59 | 36.08880 | -121.88974 | 33920 ft | 481 kts | 326° |
| 2026-04-20 06:59 | 36.14899 | -121.92699 | 34017 ft | 486 kts | 326° |
| 2026-04-20 07:00 | 36.20971 | -121.96448 | 34021 ft | 488 kts | 326° |
| 2026-04-20 07:00 | 36.27000 | -122.00204 | 34023 ft | 487 kts | 326° |
| 2026-04-20 07:01 | 36.33046 | -122.03999 | 34020 ft | 487 kts | 326° |
| 2026-04-20 07:01 | 36.39108 | -122.07818 | 34026 ft | 489 kts | 326° |
| 2026-04-20 07:02 | 36.45190 | -122.11654 | 34026 ft | 490 kts | 326° |
| 2026-04-20 07:02 | 36.51273 | -122.15496 | 34027 ft | 491 kts | 325° |
| 2026-04-20 07:03 | 36.57375 | -122.19359 | 34020 ft | 493 kts | 325° |
| 2026-04-20 07:03 | 36.63485 | -122.23231 | 34016 ft | 493 kts | 325° |
| 2026-04-20 07:04 | 36.69557 | -122.27085 | 34021 ft | 493 kts | 325° |
| 2026-04-20 07:04 | 36.75680 | -122.30981 | 34007 ft | 494 kts | 325° |
| 2026-04-20 07:05 | 36.81809 | -122.34886 | 34006 ft | 494 kts | 325° |
| 2026-04-20 07:05 | 36.87945 | -122.38802 | 33990 ft | 495 kts | 324° |
| 2026-04-20 07:06 | 36.94089 | -122.42734 | 33983 ft | 496 kts | 324° |
| 2026-04-20 07:06 | 37.00234 | -122.46671 | 33992 ft | 496 kts | 324° |
| 2026-04-20 07:07 | 37.06390 | -122.50622 | 33981 ft | 497 kts | 324° |
| 2026-04-20 07:07 | 37.12507 | -122.54557 | 33971 ft | 498 kts | 324° |
| 2026-04-20 07:08 | 37.18669 | -122.58527 | 33990 ft | 498 kts | 324° |
| 2026-04-20 07:08 | 37.24843 | -122.62513 | 33975 ft | 500 kts | 324° |
| 2026-04-20 07:09 | 37.31104 | -122.66383 | 33973 ft | 504 kts | 328° |
| 2026-04-20 07:09 | 37.37606 | -122.69739 | 33978 ft | 506 kts | 329° |
| 2026-04-20 07:10 | 37.44177 | -122.73022 | 33971 ft | 509 kts | 329° |
| 2026-04-20 07:10 | 37.50722 | -122.76277 | 33971 ft | 509 kts | 329° |
| 2026-04-20 07:11 | 37.57316 | -122.79572 | 33970 ft | 511 kts | 329° |
| 2026-04-20 07:11 | 37.63945 | -122.82900 | 33957 ft | 512 kts | 329° |
| 2026-04-20 07:12 | 37.70563 | -122.86229 | 33972 ft | 512 kts | 329° |
| 2026-04-20 07:12 | 37.77200 | -122.89575 | 33967 ft | 514 kts | 329° |
| 2026-04-20 07:13 | 37.83801 | -122.92906 | 33956 ft | 514 kts | 328° |
| 2026-04-20 07:13 | 37.90440 | -122.96266 | 33952 ft | 513 kts | 328° |
| 2026-04-20 07:14 | 37.97069 | -122.99629 | 33950 ft | 513 kts | 328° |
| 2026-04-20 07:14 | 38.03701 | -123.02998 | 33963 ft | 513 kts | 328° |
| 2026-04-20 07:15 | 38.10372 | -123.06397 | 33949 ft | 516 kts | 328° |
| 2026-04-20 07:15 | 38.17058 | -123.09809 | 33934 ft | 517 kts | 329° |
| 2026-04-20 07:16 | 38.23528 | -123.13501 | 33943 ft | 506 kts | 320° |
| 2026-04-20 07:16 | 38.29557 | -123.18089 | 33940 ft | 504 kts | 318° |
| 2026-04-20 07:17 | 38.35490 | -123.22826 | 33939 ft | 503 kts | 317° |
| 2026-04-20 07:17 | 38.41416 | -123.27603 | 33938 ft | 505 kts | 318° |
| 2026-04-20 07:18 | 38.47385 | -123.32408 | 33935 ft | 508 kts | 318° |
| 2026-04-20 07:18 | 38.53367 | -123.37213 | 33947 ft | 508 kts | 318° |
| 2026-04-20 07:19 | 38.59375 | -123.42045 | 33932 ft | 510 kts | 318° |
| 2026-04-20 07:19 | 38.65381 | -123.46886 | 33931 ft | 511 kts | 318° |
| 2026-04-20 07:20 | 38.71400 | -123.51747 | 33924 ft | 512 kts | 318° |
| 2026-04-20 07:20 | 38.77398 | -123.56605 | 33932 ft | 514 kts | 318° |
| 2026-04-20 07:21 | 38.83444 | -123.61507 | 33927 ft | 514 kts | 318° |
| 2026-04-20 07:21 | 38.89496 | -123.66427 | 33919 ft | 517 kts | 318° |
| 2026-04-20 07:22 | 38.95536 | -123.71423 | 33924 ft | 512 kts | 314° |
| 2026-04-20 07:22 | 38.98250 | -123.74319 | 33913 ft | 499 kts | 305° |
| 2026-04-20 07:22 | 39.00525 | -123.77607 | 33916 ft | 486 kts | 296° |
| 2026-04-20 07:23 | 39.03878 | -123.84984 | 33909 ft | 474 kts | 287° |
| 2026-04-20 07:23 | 39.06779 | -123.92601 | 33909 ft | 473 kts | 285° |
| 2026-04-20 07:24 | 39.09612 | -124.00240 | 33923 ft | 472 kts | 285° |
| 2026-04-20 07:24 | 39.12446 | -124.07835 | 33899 ft | 474 kts | 285° |
| 2026-04-20 07:25 | 39.15326 | -124.15507 | 33893 ft | 475 kts | 285° |
| 2026-04-20 07:25 | 39.18201 | -124.23162 | 33911 ft | 475 kts | 285° |
| 2026-04-20 07:26 | 39.21073 | -124.30827 | 33887 ft | 475 kts | 285° |
| 2026-04-20 07:26 | 39.23947 | -124.38536 | 33880 ft | 477 kts | 285° |
| 2026-04-20 07:27 | 39.26823 | -124.46259 | 33872 ft | 477 kts | 285° |
| 2026-04-20 07:27 | 39.29689 | -124.53965 | 33869 ft | 473 kts | 285° |
| 2026-04-20 07:28 | 39.32525 | -124.61616 | 33870 ft | 472 kts | 285° |